Airfield :
LOGIN :

Register | Disclaimer

   EN    FR    IT 

 










Legend :    VFR   Marginal VFR   IFR   Intensive IFR   Very Intensive IFR
Visi :
Ceiling :
>= 8 km
>= 3000ft
5 to 8 km
1000 to 3000 ft
1500m to 5 km
500 to 1000 ft
800 to 1500m
200 to 500 ft
< 800m
< 200 ft
Symbols :   Thunderstorms  Fog  Heavy snow  Heavy precipitations  Wind > 20 kt
SIGMETs :     Misc.  Thunderstorms  Icing  Turbulence  Mountain Waves  Volcanic Ashes






- Airport Elevation : 2697 ft
- IATA code : BLJ


DABT - Batna

CURRENT METAR :
  • 291720Z 12005KT 9999 BKN023 SCT026 FEW030CB 18/15 Q1017RETS

EXPIRED METARs :
  • 291700Z 30009KT 6000 TSRA BKN023 SCT026 FEW030CB 18/15 Q1017
  • 291600Z 36013KT 6000 TS SHRA BKN023 SCT026 FEW030CB 16/15 Q1015
  • 291500Z 01006KT 9999 -TS BKN026 FEW030CB 24/10 Q1015

TAF TAF DABT
Valid from the 29 at 18:00 until the 30 at 18:00 UTC


291700Z 2918/3018 24010KT 6000 -TSRA FEW030CB SCT033
TEMPO 2918/2924 24018G28KT 4000 -SHRA
BECMG 3000/3002 VRB02KT 9999 SCT026
BECMG 3010/3012 02010KT
TEMPO 3012/3018 02018G28KT -TSRA FEW026CB SCT030



MET'MAP, your aeronautical weather chart ! - Copyright ORBIFLY December 2007 - Disclaimer

ORBIFLY MET'MAP TEAM :

Programming & Development : Alexandra Zaïnal
Concept & original design : Baudouin d'Aumeries
Assistance for programming : Marc-Olivier Méhu
Technical & hardware support : Manuel Goepfert

Contact : metmap@orbifly.com




SOURCES & CREDITS :

   NOAA